createdAt,value
2022-08-28T00:00:41.699Z,962.83
2022-08-28T00:01:41.654Z,962.86
2022-08-28T00:02:41.637Z,962.88
2022-08-28T00:03:41.594Z,962.87
2022-08-28T00:04:41.577Z,962.88
2022-08-28T00:05:41.490Z,962.83
2022-08-28T00:06:41.449Z,962.85
2022-08-28T00:07:44.362Z,962.85
2022-08-28T00:08:41.385Z,962.87
2022-08-28T00:09:41.326Z,962.83
2022-08-28T00:10:41.287Z,962.81
2022-08-28T00:11:41.243Z,962.84
2022-08-28T00:12:41.205Z,962.84
2022-08-28T00:13:41.160Z,962.84
2022-08-28T00:14:41.144Z,962.84
2022-08-28T00:15:41.110Z,962.85
2022-08-28T00:16:41.035Z,962.86
2022-08-28T00:17:40.998Z,962.86
2022-08-28T00:18:40.957Z,962.84
2022-08-28T00:19:40.918Z,962.84
2022-08-28T00:20:40.902Z,962.86
2022-08-28T00:21:40.837Z,962.87
2022-08-28T00:22:40.793Z,962.88
2022-08-28T00:23:42.665Z,962.87
2022-08-28T00:24:40.710Z,962.83
2022-08-28T00:25:40.671Z,962.87
2022-08-28T00:26:40.674Z,962.84
2022-08-28T00:27:40.591Z,962.87
2022-08-28T00:28:40.555Z,962.86
2022-08-28T00:29:40.507Z,962.86
2022-08-28T00:30:40.467Z,962.85
2022-08-28T00:31:40.491Z,962.83
2022-08-28T00:32:40.409Z,962.85
2022-08-28T00:33:40.349Z,962.84
2022-08-28T00:34:40.305Z,962.82
2022-08-28T00:35:40.273Z,962.79
2022-08-28T00:36:40.221Z,962.81
2022-08-28T00:37:40.178Z,962.78
2022-08-28T00:38:40.149Z,962.79
2022-08-28T00:39:40.097Z,962.79
2022-08-28T00:40:40.196Z,962.81
2022-08-28T00:41:41.177Z,962.81
2022-08-28T00:42:39.979Z,962.82
2022-08-28T00:43:39.956Z,962.77
2022-08-28T00:44:39.897Z,962.79
2022-08-28T00:45:40.307Z,962.79
2022-08-28T00:46:39.867Z,962.76
2022-08-28T00:47:39.774Z,962.76
2022-08-28T00:48:39.731Z,962.79
2022-08-28T00:49:39.706Z,962.80
2022-08-28T00:50:39.648Z,962.82
2022-08-28T00:51:39.615Z,962.78
2022-08-28T00:52:39.566Z,962.78
2022-08-28T00:53:39.532Z,962.78
2022-08-28T00:54:39.488Z,962.74
2022-08-28T00:55:39.465Z,962.75
2022-08-28T00:56:39.402Z,962.73
2022-08-28T00:57:39.365Z,962.74
2022-08-28T00:58:39.318Z,962.77
2022-08-28T00:59:39.287Z,962.72
2022-08-28T01:00:39.241Z,962.75
2022-08-28T01:01:39.352Z,962.72
2022-08-28T01:02:39.229Z,962.73
2022-08-28T01:03:39.118Z,962.71
2022-08-28T01:04:39.111Z,962.69
2022-08-28T01:05:39.036Z,962.70
2022-08-28T01:06:38.997Z,962.69
2022-08-28T01:07:38.953Z,962.70
2022-08-28T01:08:38.918Z,962.68
2022-08-28T01:09:38.870Z,962.67
2022-08-28T01:10:38.850Z,962.68
2022-08-28T01:11:38.795Z,962.70
2022-08-28T01:12:38.747Z,962.72
2022-08-28T01:13:38.708Z,962.72
2022-08-28T01:14:38.667Z,962.71
2022-08-28T01:15:38.680Z,962.71
2022-08-28T01:16:38.602Z,962.76
2022-08-28T01:17:40.135Z,962.74
2022-08-28T01:18:38.502Z,962.71
2022-08-28T01:19:38.462Z,962.72
2022-08-28T01:20:38.428Z,962.70
2022-08-28T01:21:38.380Z,962.72
2022-08-28T01:22:38.363Z,962.72
2022-08-28T01:23:38.298Z,962.68
2022-08-28T01:24:38.266Z,962.69
2022-08-28T01:25:38.217Z,962.71
2022-08-28T01:26:38.178Z,962.66
2022-08-28T01:27:38.142Z,962.66
2022-08-28T01:28:38.114Z,962.63
2022-08-28T01:29:38.053Z,962.62
2022-08-28T01:30:38.013Z,962.65
2022-08-28T01:31:38.035Z,962.62
2022-08-28T01:32:37.926Z,962.64
2022-08-28T01:33:37.887Z,962.64
2022-08-28T01:34:37.865Z,962.65
2022-08-28T01:35:37.807Z,962.61
2022-08-28T01:36:37.764Z,962.62
2022-08-28T01:37:37.728Z,962.63
2022-08-28T01:38:37.679Z,962.65
2022-08-28T01:39:37.652Z,962.66
2022-08-28T01:40:37.713Z,962.66
2022-08-28T01:41:37.555Z,962.64
2022-08-28T01:42:37.519Z,962.61
2022-08-28T01:43:37.484Z,962.62
2022-08-28T01:44:37.440Z,962.59
2022-08-28T01:45:37.397Z,962.59
2022-08-28T01:46:37.413Z,962.60
2022-08-28T01:47:37.332Z,962.60
2022-08-28T01:48:37.272Z,962.60
2022-08-28T01:49:37.236Z,962.60
2022-08-28T01:50:37.194Z,962.59
2022-08-28T01:51:38.098Z,962.61
2022-08-28T01:52:37.108Z,962.66
2022-08-28T01:53:37.089Z,962.63
2022-08-28T01:54:37.022Z,962.61
2022-08-28T01:55:36.985Z,962.62
2022-08-28T01:56:36.935Z,962.62
2022-08-28T01:57:36.902Z,962.63
2022-08-28T01:58:38.415Z,962.59
2022-08-28T01:59:36.857Z,962.60
2022-08-28T02:00:36.773Z,962.55
2022-08-28T02:01:36.801Z,962.56
2022-08-28T02:02:36.700Z,962.56
2022-08-28T02:03:36.653Z,962.54
2022-08-28T02:04:36.715Z,962.53
2022-08-28T02:05:36.611Z,962.53
2022-08-28T02:06:36.526Z,962.56
2022-08-28T02:07:36.489Z,962.56
2022-08-28T02:08:36.445Z,962.57
2022-08-28T02:09:36.408Z,962.59
2022-08-28T02:10:36.360Z,962.62
2022-08-28T02:11:36.345Z,962.64
2022-08-28T02:12:36.280Z,962.61
2022-08-28T02:13:36.242Z,962.63
2022-08-28T02:14:36.196Z,962.62
2022-08-28T02:15:36.192Z,962.61
2022-08-28T02:16:36.116Z,962.61
2022-08-28T02:17:36.094Z,962.60
2022-08-28T02:18:36.032Z,962.60
2022-08-28T02:19:35.995Z,962.61
2022-08-28T02:20:35.950Z,962.64
2022-08-28T02:21:35.912Z,962.64
2022-08-28T02:22:35.870Z,962.64
2022-08-28T02:23:35.851Z,962.67
2022-08-28T02:24:35.785Z,962.67
2022-08-28T02:25:35.742Z,962.70
2022-08-28T02:26:35.705Z,962.69
2022-08-28T02:27:35.664Z,962.69
2022-08-28T02:28:35.619Z,962.72
2022-08-28T02:29:35.595Z,962.72
2022-08-28T02:30:35.607Z,962.72
2022-08-28T02:31:35.498Z,962.78
2022-08-28T02:32:35.456Z,962.75
2022-08-28T02:33:35.414Z,962.81
2022-08-28T02:34:35.373Z,962.80
2022-08-28T02:35:35.354Z,962.79
2022-08-28T02:36:35.287Z,962.81
2022-08-28T02:37:35.247Z,962.82
2022-08-28T02:38:35.208Z,962.82
2022-08-28T02:39:35.172Z,962.79
2022-08-28T02:40:35.168Z,962.79
2022-08-28T02:41:35.196Z,962.79
2022-08-28T02:42:35.048Z,962.78
2022-08-28T02:43:35.003Z,962.79
2022-08-28T02:44:34.966Z,962.82
2022-08-28T02:45:34.924Z,962.79
2022-08-28T02:46:34.935Z,962.80
2022-08-28T02:47:34.867Z,962.80
2022-08-28T02:48:34.802Z,962.81
2022-08-28T02:49:36.333Z,962.77
2022-08-28T02:50:34.719Z,962.79
2022-08-28T02:51:34.675Z,962.79
2022-08-28T02:52:34.633Z,962.82
2022-08-28T02:53:34.620Z,962.80
2022-08-28T02:54:34.554Z,962.82
2022-08-28T02:55:34.541Z,962.82
2022-08-28T02:56:34.473Z,962.81
2022-08-28T02:57:34.430Z,962.82
2022-08-28T02:58:34.393Z,962.78
2022-08-28T02:59:34.371Z,962.80
2022-08-28T03:00:34.307Z,962.81
2022-08-28T03:01:34.383Z,962.81
2022-08-28T03:02:34.291Z,962.78
2022-08-28T03:03:34.195Z,962.79
2022-08-28T03:04:34.146Z,962.77
2022-08-28T03:05:34.125Z,962.76
2022-08-28T03:06:34.097Z,962.76
2022-08-28T03:07:34.021Z,962.73
2022-08-28T03:08:34.009Z,962.77
2022-08-28T03:09:33.947Z,962.76
2022-08-28T03:10:33.904Z,962.76
2022-08-28T03:11:33.859Z,962.75
2022-08-28T03:12:33.852Z,962.71
2022-08-28T03:13:33.782Z,962.72
2022-08-28T03:14:33.733Z,962.75
2022-08-28T03:15:33.694Z,962.73
2022-08-28T03:16:33.720Z,962.71
2022-08-28T03:17:33.609Z,962.71
2022-08-28T03:18:33.586Z,962.73
2022-08-28T03:19:33.533Z,962.78
2022-08-28T03:20:33.490Z,962.73
2022-08-28T03:21:33.448Z,962.73
2022-08-28T03:22:33.409Z,962.73
2022-08-28T03:23:33.366Z,962.69
2022-08-28T03:24:33.340Z,962.67
2022-08-28T03:25:33.291Z,962.68
2022-08-28T03:26:33.268Z,962.66
2022-08-28T03:27:33.203Z,962.66
2022-08-28T03:28:33.159Z,962.66
2022-08-28T03:29:33.141Z,962.69
2022-08-28T03:30:33.141Z,962.70
2022-08-28T03:31:33.037Z,962.70
2022-08-28T03:32:32.998Z,962.68
2022-08-28T03:33:32.955Z,962.71
2022-08-28T03:34:32.917Z,962.68
2022-08-28T03:35:32.904Z,962.72
2022-08-28T03:36:32.834Z,962.70
2022-08-28T03:37:32.818Z,962.68
2022-08-28T03:38:32.756Z,962.70
2022-08-28T03:39:32.714Z,962.67
2022-08-28T03:40:32.748Z,962.69
2022-08-28T03:41:32.633Z,962.68
2022-08-28T03:42:32.614Z,962.70
2022-08-28T03:43:32.576Z,962.71
2022-08-28T03:44:32.506Z,962.70
2022-08-28T03:45:32.505Z,962.74
2022-08-28T03:46:32.458Z,962.74
2022-08-28T03:47:32.384Z,962.73
2022-08-28T03:48:32.348Z,962.74
2022-08-28T03:49:32.313Z,962.79
2022-08-28T03:50:32.261Z,962.78
2022-08-28T03:51:32.222Z,962.77
2022-08-28T03:52:32.178Z,962.80
2022-08-28T03:53:32.138Z,962.75
2022-08-28T03:54:32.124Z,962.76
2022-08-28T03:55:32.058Z,962.71
2022-08-28T03:56:32.018Z,962.68
2022-08-28T03:57:31.973Z,962.72
2022-08-28T03:58:31.938Z,962.65
2022-08-28T03:59:33.779Z,962.68
2022-08-28T04:00:31.881Z,962.71
2022-08-28T04:01:31.830Z,962.74
2022-08-28T04:02:31.768Z,962.75
2022-08-28T04:03:31.761Z,962.77
2022-08-28T04:04:31.685Z,962.79
2022-08-28T04:05:31.645Z,962.80
2022-08-28T04:06:31.621Z,962.80
2022-08-28T04:07:31.564Z,962.84
2022-08-28T04:08:31.527Z,962.80
2022-08-28T04:09:31.482Z,962.81
2022-08-28T04:10:31.441Z,962.79
2022-08-28T04:11:31.400Z,962.81
2022-08-28T04:12:34.515Z,962.82
2022-08-28T04:13:31.319Z,962.82
2022-08-28T04:14:31.281Z,962.83
2022-08-28T04:15:31.239Z,962.87
2022-08-28T04:16:31.237Z,962.85
2022-08-28T04:17:31.158Z,962.83
2022-08-28T04:18:31.131Z,962.85
2022-08-28T04:19:31.077Z,962.88
2022-08-28T04:20:31.034Z,962.85
2022-08-28T04:21:30.993Z,962.86
2022-08-28T04:22:30.958Z,962.86
2022-08-28T04:23:30.914Z,962.86
2022-08-28T04:24:31.029Z,962.85
2022-08-28T04:25:30.833Z,962.86
2022-08-28T04:26:30.788Z,962.84
2022-08-28T04:27:30.746Z,962.83
2022-08-28T04:28:30.710Z,962.83
2022-08-28T04:29:30.664Z,962.81
2022-08-28T04:30:30.651Z,962.86
2022-08-28T04:31:31.176Z,962.88
2022-08-28T04:32:30.543Z,962.89
2022-08-28T04:33:30.506Z,962.86
2022-08-28T04:34:30.463Z,962.87
2022-08-28T04:35:30.421Z,962.87
2022-08-28T04:36:30.398Z,962.87
2022-08-28T04:37:30.354Z,962.86
2022-08-28T04:38:30.301Z,962.86
2022-08-28T04:39:30.261Z,962.87
2022-08-28T04:40:30.272Z,962.89
2022-08-28T04:41:30.180Z,962.90
2022-08-28T04:42:30.148Z,962.89
2022-08-28T04:43:30.123Z,962.88
2022-08-28T04:44:30.058Z,962.88
2022-08-28T04:45:30.067Z,962.88
2022-08-28T04:46:31.049Z,962.90
2022-08-28T04:47:29.934Z,962.88
2022-08-28T04:48:29.893Z,962.89
2022-08-28T04:49:29.882Z,962.91
2022-08-28T04:50:29.813Z,962.88
2022-08-28T04:51:29.773Z,962.91
2022-08-28T04:52:29.731Z,962.93
2022-08-28T04:53:29.691Z,962.91
2022-08-28T04:54:29.679Z,962.94
2022-08-28T04:55:53.429Z,962.95
2022-08-28T04:56:29.574Z,962.94
2022-08-28T04:57:32.204Z,962.96
2022-08-28T04:58:29.489Z,962.98
2022-08-28T04:59:29.448Z,962.97
2022-08-28T05:00:29.418Z,963.02
2022-08-28T05:01:29.389Z,963.04
2022-08-28T05:02:29.344Z,963.04
2022-08-28T05:03:29.286Z,963.02
2022-08-28T05:04:29.245Z,963.09
2022-08-28T05:05:29.206Z,963.09
2022-08-28T05:06:29.174Z,963.11
2022-08-28T05:07:29.125Z,963.12
2022-08-28T05:08:29.081Z,963.16
2022-08-28T05:09:29.042Z,963.17
2022-08-28T05:10:29.001Z,963.20
2022-08-28T05:11:34.256Z,963.20
2022-08-28T05:12:28.920Z,963.19
2022-08-28T05:13:28.878Z,963.21
2022-08-28T05:14:28.842Z,963.22
2022-08-28T05:15:28.800Z,963.23
2022-08-28T05:16:28.876Z,963.21
2022-08-28T05:17:28.721Z,963.22
2022-08-28T05:18:28.680Z,963.21
2022-08-28T05:19:28.659Z,963.21
2022-08-28T05:20:28.597Z,963.19
2022-08-28T05:21:28.561Z,963.23
2022-08-28T05:22:28.533Z,963.21
2022-08-28T05:23:28.499Z,963.24
2022-08-28T05:24:28.465Z,963.27
2022-08-28T05:25:28.394Z,963.27
2022-08-28T05:26:29.795Z,963.32
2022-08-28T05:27:28.314Z,963.32
2022-08-28T05:28:28.276Z,963.34
2022-08-28T05:29:28.236Z,963.30
2022-08-28T05:30:28.209Z,963.40
2022-08-28T05:31:28.193Z,963.38
2022-08-28T05:32:28.115Z,963.36
2022-08-28T05:33:28.072Z,963.34
2022-08-28T05:34:28.034Z,963.34
2022-08-28T05:35:28.016Z,963.32
2022-08-28T05:36:27.977Z,963.36
2022-08-28T05:37:27.915Z,963.33
2022-08-28T05:38:27.873Z,963.32
2022-08-28T05:39:27.833Z,963.38
2022-08-28T05:40:27.857Z,963.40
2022-08-28T05:41:27.762Z,963.43
2022-08-28T05:42:30.660Z,963.40
2022-08-28T05:43:27.671Z,963.47
2022-08-28T05:44:27.632Z,963.46
2022-08-28T05:45:27.598Z,963.42
2022-08-28T05:46:27.578Z,963.47
2022-08-28T05:47:27.511Z,963.46
2022-08-28T05:48:27.473Z,963.51
2022-08-28T05:49:27.435Z,963.49
2022-08-28T05:50:27.398Z,963.51
2022-08-28T05:51:27.624Z,963.52
2022-08-28T05:52:27.328Z,963.52
2022-08-28T05:53:27.279Z,963.53
2022-08-28T05:54:29.047Z,963.53
2022-08-28T05:55:27.192Z,963.54
2022-08-28T05:56:27.157Z,963.58
2022-08-28T05:57:27.112Z,963.59
2022-08-28T05:58:27.106Z,963.55
2022-08-28T05:59:27.036Z,963.53
2022-08-28T06:03:48.445Z,963.57
2022-08-28T06:04:46.975Z,963.58
2022-08-28T06:05:47.171Z,963.60
2022-08-28T06:06:46.890Z,963.58
2022-08-28T06:07:46.980Z,963.59
2022-08-28T06:08:56.151Z,963.58
2022-08-28T06:09:46.785Z,963.57
2022-08-28T06:10:48.345Z,963.59
2022-08-28T06:11:46.811Z,963.60
2022-08-28T06:12:46.648Z,963.60
2022-08-28T06:13:46.822Z,963.61
2022-08-28T06:14:46.832Z,963.65
2022-08-28T06:15:46.730Z,963.67
2022-08-28T06:16:46.498Z,963.64
2022-08-28T06:17:46.449Z,963.69
2022-08-28T06:18:46.811Z,963.68
2022-08-28T06:19:46.669Z,963.70
2022-08-28T06:20:47.479Z,963.71
2022-08-28T06:21:46.514Z,963.69
2022-08-28T06:22:46.243Z,963.72
2022-08-28T06:23:46.212Z,963.71
2022-08-28T06:24:46.290Z,963.67
2022-08-28T06:25:46.130Z,963.70
2022-08-28T06:26:46.299Z,963.70
2022-08-28T06:27:46.071Z,963.72
2022-08-28T06:28:46.006Z,963.76
2022-08-28T06:29:46.422Z,963.77
2022-08-28T06:31:08.900Z,963.77
2022-08-28T06:31:45.924Z,963.77
2022-08-28T06:32:46.243Z,963.76
2022-08-28T06:33:45.990Z,963.78
2022-08-28T06:34:45.795Z,963.75
2022-08-28T06:35:47.998Z,963.77
2022-08-28T06:36:46.585Z,963.72
2022-08-28T06:37:45.758Z,963.75
2022-08-28T06:38:45.625Z,963.77
2022-08-28T06:39:46.037Z,963.80
2022-08-28T06:40:45.531Z,963.82
2022-08-28T06:41:45.799Z,963.79
2022-08-28T06:42:45.457Z,963.78
2022-08-28T06:43:45.630Z,963.80
2022-08-28T06:44:45.369Z,963.87
2022-08-28T06:45:45.701Z,963.84
2022-08-28T06:46:45.298Z,963.87
2022-08-28T06:47:45.631Z,963.86
2022-08-28T06:48:45.218Z,963.82
2022-08-28T06:49:46.475Z,963.82
2022-08-28T06:50:45.129Z,963.84
2022-08-28T06:51:45.102Z,963.84
2022-08-28T06:52:45.083Z,963.86
2022-08-28T06:53:45.275Z,963.90
2022-08-28T06:54:48.219Z,963.89
2022-08-28T06:55:44.940Z,963.92
2022-08-28T06:56:45.081Z,963.90
2022-08-28T06:57:45.135Z,963.91
2022-08-28T06:58:49.969Z,963.98
2022-08-28T06:59:44.786Z,963.96
2022-08-28T07:00:45.007Z,963.95
2022-08-28T07:01:44.804Z,963.95
2022-08-28T07:02:44.863Z,963.98
2022-08-28T07:03:44.668Z,964.03
2022-08-28T07:04:44.839Z,964.03
2022-08-28T07:05:44.556Z,964.06
2022-08-28T07:06:44.805Z,964.01
2022-08-28T07:07:44.481Z,964.07
2022-08-28T07:08:44.856Z,964.05
2022-08-28T07:09:44.400Z,964.05
2022-08-28T07:10:44.468Z,964.06
2022-08-28T07:11:44.323Z,964.05
2022-08-28T07:12:45.498Z,964.06
2022-08-28T07:13:44.249Z,964.11
2022-08-28T07:14:44.491Z,964.12
2022-08-28T07:15:44.377Z,964.12
2022-08-28T07:16:44.129Z,964.11
2022-08-28T07:17:44.311Z,964.13
2022-08-28T07:18:44.048Z,964.12
2022-08-28T07:19:44.128Z,964.10
2022-08-28T07:20:44.188Z,964.13
2022-08-28T07:21:43.933Z,964.15
2022-08-28T07:22:44.040Z,964.15
2022-08-28T07:23:43.866Z,964.16
2022-08-28T07:24:44.057Z,964.14
2022-08-28T07:25:43.788Z,964.19
2022-08-28T07:26:43.863Z,964.14
2022-08-28T07:27:43.703Z,964.14
2022-08-28T07:28:43.916Z,964.16
2022-08-28T07:29:43.628Z,964.16
2022-08-28T07:30:43.760Z,964.18
2022-08-28T07:31:43.755Z,964.15
2022-08-28T07:32:43.807Z,964.20
2022-08-28T07:33:43.634Z,964.17
2022-08-28T07:34:43.451Z,964.22
2022-08-28T07:35:43.632Z,964.25
2022-08-28T07:36:43.358Z,964.25
2022-08-28T07:37:43.655Z,964.29
2022-08-28T07:38:43.280Z,964.30
2022-08-28T07:39:43.259Z,964.30
2022-08-28T07:40:43.473Z,964.29
2022-08-28T07:41:43.253Z,964.31
2022-08-28T07:42:43.270Z,964.32
2022-08-28T07:43:43.334Z,964.32
2022-08-28T07:44:43.285Z,964.31
2022-08-28T07:45:43.351Z,964.33
2022-08-28T07:46:42.980Z,964.34
2022-08-28T07:47:43.098Z,964.30
2022-08-28T07:48:42.927Z,964.32
2022-08-28T07:49:44.135Z,964.30
2022-08-28T07:50:42.821Z,964.31
2022-08-28T07:51:42.789Z,964.27
2022-08-28T07:52:42.933Z,964.27
2022-08-28T07:53:42.712Z,964.26
2022-08-28T07:54:43.015Z,964.25
2022-08-28T07:55:42.799Z,964.31
2022-08-28T07:56:42.747Z,964.36
2022-08-28T07:57:42.837Z,964.33
2022-08-28T07:58:42.525Z,964.34
2022-08-28T07:59:42.815Z,964.38
2022-08-28T08:00:42.442Z,964.35
2022-08-28T08:01:42.920Z,964.36
2022-08-28T08:02:42.369Z,964.42
2022-08-28T08:03:42.420Z,964.41
2022-08-28T08:04:42.615Z,964.41
2022-08-28T08:05:42.262Z,964.40
2022-08-28T08:06:42.518Z,964.42
2022-08-28T08:07:43.777Z,964.42
2022-08-28T08:08:44.367Z,964.40
2022-08-28T08:09:42.329Z,964.43
2022-08-28T08:10:42.073Z,964.45
2022-08-28T08:11:43.336Z,964.50
2022-08-28T08:12:42.035Z,964.49
2022-08-28T08:14:03.258Z,964.47
2022-08-28T08:14:41.960Z,964.50
2022-08-28T08:15:42.017Z,964.50
2022-08-28T08:16:41.883Z,964.50
2022-08-28T08:17:41.996Z,964.49
2022-08-28T08:18:41.806Z,964.50
2022-08-28T08:19:42.200Z,964.49
2022-08-28T08:20:41.712Z,964.51
2022-08-28T08:21:41.668Z,964.53
2022-08-28T08:22:41.833Z,964.52
2022-08-28T08:23:41.604Z,964.50
2022-08-28T08:24:41.841Z,964.46
2022-08-28T08:25:41.549Z,964.51
2022-08-28T08:26:41.639Z,964.48
2022-08-28T08:27:43.137Z,964.54
2022-08-28T08:28:41.409Z,964.53
2022-08-28T08:29:41.671Z,964.57
2022-08-28T08:30:41.473Z,964.57
2022-08-28T08:31:44.063Z,964.60
2022-08-28T08:32:41.570Z,964.60
2022-08-28T08:33:41.228Z,964.63
2022-08-28T08:34:41.601Z,964.59
2022-08-28T08:35:41.152Z,964.63
2022-08-28T08:36:42.352Z,964.63
2022-08-28T08:37:41.084Z,964.67
2022-08-28T08:38:41.213Z,964.65
2022-08-28T08:39:41.228Z,964.68
2022-08-28T08:40:41.016Z,964.67
2022-08-28T08:41:41.328Z,964.63
2022-08-28T08:42:40.903Z,964.64
2022-08-28T08:43:42.105Z,964.64
2022-08-28T08:44:40.883Z,964.62
2022-08-28T08:45:40.788Z,964.60
2022-08-28T08:46:41.163Z,964.65
2022-08-28T08:47:40.717Z,964.64
2022-08-28T08:48:40.881Z,964.70
2022-08-28T08:49:40.645Z,964.66
2022-08-28T08:50:41.109Z,964.68
2022-08-28T08:51:41.742Z,964.66
2022-08-28T08:52:40.535Z,964.71
2022-08-28T08:53:49.608Z,964.70
2022-08-28T08:54:40.466Z,964.68
2022-08-28T08:55:40.433Z,964.72
2022-08-28T08:56:40.414Z,964.70
2022-08-28T08:57:40.360Z,964.72
2022-08-28T08:58:40.327Z,964.73
2022-08-28T08:59:40.287Z,964.75
2022-08-28T09:00:40.255Z,964.73
2022-08-28T09:01:40.286Z,964.68
2022-08-28T09:02:40.203Z,964.67
2022-08-28T09:03:44.077Z,964.72
2022-08-28T09:04:40.110Z,964.70
2022-08-28T09:05:40.069Z,964.69
2022-08-28T09:06:40.036Z,964.73
2022-08-28T09:07:40.002Z,964.72
2022-08-28T09:08:39.972Z,964.75
2022-08-28T09:09:39.924Z,964.70
2022-08-28T09:10:39.898Z,964.75
2022-08-28T09:11:39.857Z,964.76
2022-08-28T09:12:39.827Z,964.73
2022-08-28T09:13:39.813Z,964.71
2022-08-28T09:14:39.746Z,964.72
2022-08-28T09:15:39.751Z,964.78
2022-08-28T09:16:39.672Z,964.79
2022-08-28T09:17:39.633Z,964.79
2022-08-28T09:18:39.601Z,964.81
2022-08-28T09:19:39.585Z,964.84
2022-08-28T09:20:39.529Z,964.86
2022-08-28T09:21:39.496Z,964.83
2022-08-28T09:22:39.461Z,964.82
2022-08-28T09:23:39.431Z,964.83
2022-08-28T09:24:39.406Z,964.81
2022-08-28T09:25:39.354Z,964.78
2022-08-28T09:26:39.312Z,964.78
2022-08-28T09:27:39.510Z,964.74
2022-08-28T09:28:39.242Z,964.74
2022-08-28T09:29:39.208Z,964.75
2022-08-28T09:30:39.202Z,964.74
2022-08-28T09:31:39.136Z,964.73
2022-08-28T09:32:39.103Z,964.71
2022-08-28T09:33:40.094Z,964.75
2022-08-28T09:34:39.245Z,964.77
2022-08-28T09:35:38.997Z,964.78
2022-08-28T09:36:38.970Z,964.76
2022-08-28T09:37:38.920Z,964.74
2022-08-28T09:38:38.892Z,964.80
2022-08-28T09:39:38.958Z,964.80
2022-08-28T09:40:38.901Z,964.76
2022-08-28T09:41:38.783Z,964.76
2022-08-28T09:42:38.741Z,964.80
2022-08-28T09:43:38.707Z,964.81
2022-08-28T09:44:38.671Z,964.77
2022-08-28T09:45:38.690Z,964.78
2022-08-28T09:46:38.682Z,964.76
2022-08-28T09:47:46.270Z,964.75
2022-08-28T09:48:38.524Z,964.77
2022-08-28T09:49:38.492Z,964.74
2022-08-28T09:50:38.462Z,964.78
2022-08-28T09:51:38.417Z,964.80
2022-08-28T09:52:38.414Z,964.78
2022-08-28T09:53:38.354Z,964.74
2022-08-28T09:54:38.315Z,964.76
2022-08-28T09:55:38.280Z,964.76
2022-08-28T09:56:38.244Z,964.78
2022-08-28T09:57:38.267Z,964.76
2022-08-28T09:58:38.357Z,964.76
2022-08-28T09:59:38.136Z,964.76
2022-08-28T10:00:38.100Z,964.76
2022-08-28T10:01:38.113Z,964.76
2022-08-28T10:02:38.031Z,964.74
2022-08-28T10:03:37.991Z,964.75
2022-08-28T10:04:38.084Z,964.76
2022-08-28T10:05:37.927Z,964.76
2022-08-28T10:06:37.888Z,964.76
2022-08-28T10:07:37.858Z,964.76
2022-08-28T10:08:37.812Z,964.77
2022-08-28T10:09:37.782Z,964.75
2022-08-28T10:10:38.169Z,964.75
2022-08-28T10:11:37.713Z,964.78
2022-08-28T10:12:37.676Z,964.79
2022-08-28T10:13:37.641Z,964.80
2022-08-28T10:14:37.608Z,964.80
2022-08-28T10:15:42.540Z,964.80
2022-08-28T10:16:37.538Z,964.78
2022-08-28T10:17:37.541Z,964.83
2022-08-28T10:18:37.464Z,964.79
2022-08-28T10:19:37.434Z,964.80
2022-08-28T10:20:37.398Z,964.78
2022-08-28T10:21:37.384Z,964.77
2022-08-28T10:22:37.326Z,964.77
2022-08-28T10:23:37.293Z,964.75
2022-08-28T10:24:37.259Z,964.79
2022-08-28T10:25:37.226Z,964.78
2022-08-28T10:26:37.198Z,964.79
2022-08-28T10:27:37.175Z,964.78
2022-08-28T10:28:37.120Z,964.76
2022-08-28T10:29:37.081Z,964.78
2022-08-28T10:30:37.113Z,964.73
2022-08-28T10:31:37.015Z,964.71
2022-08-28T10:32:36.997Z,964.75
2022-08-28T10:33:37.065Z,964.77
2022-08-28T10:34:36.919Z,964.72
2022-08-28T10:35:36.881Z,964.74
2022-08-28T10:36:36.842Z,964.75
2022-08-28T10:37:36.809Z,964.73
2022-08-28T10:38:36.768Z,964.77
2022-08-28T10:39:36.766Z,964.76
2022-08-28T10:40:36.739Z,964.77
2022-08-28T10:41:36.662Z,964.77
2022-08-28T10:42:36.628Z,964.79
2022-08-28T10:43:36.595Z,964.76
2022-08-28T10:44:36.701Z,964.79
2022-08-28T10:45:36.542Z,964.74
2022-08-28T10:46:36.545Z,964.74
2022-08-28T10:47:36.455Z,964.78
2022-08-28T10:48:36.420Z,964.80
2022-08-28T10:49:36.386Z,964.78
2022-08-28T10:50:36.401Z,964.82
2022-08-28T10:51:38.479Z,964.79
2022-08-28T10:52:36.279Z,964.79
2022-08-28T10:53:36.245Z,964.78
2022-08-28T10:54:36.211Z,964.79
2022-08-28T10:55:36.582Z,964.81
2022-08-28T10:56:36.237Z,964.77
2022-08-28T10:57:39.455Z,964.78
2022-08-28T10:58:36.085Z,964.76
2022-08-28T10:59:41.893Z,964.73
2022-08-28T11:00:35.996Z,964.77
2022-08-28T11:01:36.024Z,964.83
2022-08-28T11:02:35.977Z,964.88
2022-08-28T11:03:35.933Z,964.86
2022-08-28T11:04:35.884Z,964.84
2022-08-28T11:05:35.847Z,964.83
2022-08-28T11:06:35.793Z,964.89
2022-08-28T11:07:35.753Z,964.91
2022-08-28T11:08:35.726Z,964.87
2022-08-28T11:09:35.687Z,964.84
2022-08-28T11:10:35.684Z,964.87
2022-08-28T11:11:35.610Z,964.88
2022-08-28T11:12:35.585Z,964.93
2022-08-28T11:13:35.546Z,964.95
2022-08-28T11:14:39.354Z,964.95
2022-08-28T11:15:37.478Z,964.91
2022-08-28T11:16:35.471Z,964.90
2022-08-28T11:17:35.403Z,964.95
2022-08-28T11:18:35.369Z,964.96
2022-08-28T11:19:35.340Z,964.90
2022-08-28T11:20:35.324Z,964.94
2022-08-28T11:21:35.268Z,964.93
2022-08-28T11:22:35.236Z,964.92
2022-08-28T11:23:35.197Z,964.93
2022-08-28T11:24:35.163Z,964.91
2022-08-28T11:25:35.882Z,964.95
2022-08-28T11:26:35.105Z,964.98
2022-08-28T11:27:35.061Z,965.01
2022-08-28T11:28:35.030Z,965.00
2022-08-28T11:29:34.995Z,964.94
2022-08-28T11:30:35.005Z,964.94
2022-08-28T11:31:34.987Z,964.95
2022-08-28T11:32:34.892Z,964.95
2022-08-28T11:33:34.860Z,964.96
2022-08-28T11:34:34.826Z,964.96
2022-08-28T11:35:34.795Z,964.94
2022-08-28T11:36:34.762Z,964.97
2022-08-28T11:37:34.757Z,964.98
2022-08-28T11:38:34.689Z,965.01
2022-08-28T11:39:34.659Z,964.99
2022-08-28T11:40:34.663Z,964.98
2022-08-28T11:41:34.590Z,964.96
2022-08-28T11:42:34.554Z,964.95
2022-08-28T11:43:34.545Z,964.92
2022-08-28T11:44:34.507Z,964.94
2022-08-28T11:45:34.456Z,964.96
2022-08-28T11:46:34.457Z,964.96
2022-08-28T11:47:34.391Z,964.96
2022-08-28T11:48:34.355Z,965.01
2022-08-28T11:49:34.329Z,965.01
2022-08-28T11:50:34.305Z,965.03
2022-08-28T11:51:34.257Z,965.05
2022-08-28T11:52:34.225Z,965.04
2022-08-28T11:53:34.191Z,965.04
2022-08-28T11:54:34.207Z,964.99
2022-08-28T11:55:34.158Z,964.96
2022-08-28T11:56:34.096Z,965.01
2022-08-28T11:57:34.062Z,965.02
2022-08-28T11:58:34.036Z,965.03
2022-08-28T11:59:35.495Z,964.98
2022-08-28T12:00:34.043Z,965.07
2022-08-28T12:01:33.945Z,965.03
2022-08-28T12:02:33.974Z,965.02
2022-08-28T12:03:33.887Z,964.98
2022-08-28T12:04:33.870Z,964.98
2022-08-28T12:05:33.808Z,965.01
2022-08-28T12:06:33.776Z,964.95
2022-08-28T12:07:33.743Z,964.96
2022-08-28T12:08:33.746Z,965.01
2022-08-28T12:09:33.686Z,965.01
2022-08-28T12:10:33.661Z,964.96
2022-08-28T12:11:33.625Z,964.97
2022-08-28T12:12:33.592Z,964.99
2022-08-28T12:13:33.562Z,964.96
2022-08-28T12:14:33.557Z,965.03
2022-08-28T12:15:33.638Z,965.01
2022-08-28T12:16:33.471Z,964.97
2022-08-28T12:17:33.439Z,965.01
2022-08-28T12:18:33.415Z,964.99
2022-08-28T12:19:33.386Z,965.03
2022-08-28T12:20:33.372Z,965.03
2022-08-28T12:21:33.326Z,964.98
2022-08-28T12:22:33.304Z,964.99
2022-08-28T12:23:33.265Z,964.96
2022-08-28T12:24:33.233Z,964.94
2022-08-28T12:25:33.209Z,964.94
2022-08-28T12:26:33.193Z,964.93
2022-08-28T12:27:33.144Z,964.92
2022-08-28T12:28:33.112Z,964.89
2022-08-28T12:29:33.130Z,964.90
2022-08-28T12:30:33.085Z,964.91
2022-08-28T12:31:33.028Z,964.89